Time;durP1;ratioP1;P1;durP2;ratioP2;P2;SDS_P1;SDS_P2;PMS_P1;PMS_P2;Temp;Humidity;BMP_temperature;BMP_pressure;BME280_temperature;BME280_humidity;BME280_pressure;Samples;Min_cycle;Max_cycle;Signal;HPM_P1;HPM_P2
2022/12/08 00:01:11;;;;;;;39.95;16.48;;;;;;;-1.69;89.58;97585.83;1709555;84;21387;-75
2022/12/08 00:03:38;;;;;;;26.52;14.20;;;;;;;-1.70;89.50;97586.69;1703927;84;21430;-74
2022/12/08 00:11:43;;;;;;;29.57;15.00;;;;;;;-1.80;89.55;97581.78;1701138;84;21386;-73
2022/12/08 00:14:09;;;;;;;33.65;16.05;;;;;;;-1.86;89.25;97585.61;1696597;84;21018;-73
2022/12/08 00:16:36;;;;;;;27.98;14.87;;;;;;;-1.90;89.35;97584.70;1702764;84;21059;-73
2022/12/08 00:19:02;;;;;;;30.35;14.95;;;;;;;-1.92;89.25;97579.01;1685594;84;21052;-73
2022/12/08 00:21:29;;;;;;;30.65;15.72;;;;;;;-1.95;89.23;97581.59;1707546;84;20992;-74
2022/12/08 00:23:56;;;;;;;30.92;14.35;;;;;;;-1.97;89.40;97585.45;1709881;84;21035;-74
2022/12/08 00:26:22;;;;;;;29.50;14.70;;;;;;;-2.04;89.10;97594.88;1701573;84;21024;-74
2022/12/08 00:28:49;;;;;;;31.10;14.30;;;;;;;-2.06;89.56;97599.19;1707264;84;21001;-74
2022/12/08 00:31:20;;;;;;;30.08;14.35;;;;;;;-2.10;89.41;97597.81;1711744;84;21000;-73
2022/12/08 00:33:47;;;;;;;25.60;13.20;;;;;;;-2.12;89.60;97599.97;1708669;84;21004;-77
2022/12/08 00:36:14;;;;;;;26.90;13.90;;;;;;;-2.07;89.73;97605.24;1678168;84;20993;-76
2022/12/08 00:38:41;;;;;;;22.77;12.75;;;;;;;-2.05;90.07;97602.64;1708593;84;21520;-77
2022/12/08 00:42:10;;;;;;;26.45;13.38;;;;;;;-2.05;90.16;97603.94;1695096;84;20989;-75
2022/12/08 00:43:51;;;;;;;29.80;14.28;;;;;;;-2.07;90.08;97613.03;1691714;84;21467;-79
2022/12/08 00:46:17;;;;;;;30.27;14.13;;;;;;;-2.06;90.01;97615.19;1704729;84;21019;-77
2022/12/08 00:48:44;;;;;;;24.27;13.05;;;;;;;-2.08;89.56;97620.34;1693187;84;21379;-75
2022/12/08 00:51:10;;;;;;;22.87;12.07;;;;;;;-2.09;89.62;97621.62;1679425;84;21005;-74
2022/12/08 00:53:37;;;;;;;24.95;13.20;;;;;;;-2.15;89.57;97621.98;1681162;84;20996;-74
2022/12/08 00:56:03;;;;;;;24.12;12.73;;;;;;;-2.11;89.74;97628.11;1683622;84;21538;-75
2022/12/08 00:58:30;;;;;;;25.30;12.47;;;;;;;-2.11;89.57;97624.22;1681206;84;21044;-75
2022/12/08 01:00:56;;;;;;;21.10;11.18;;;;;;;-2.16;89.65;97621.53;1675936;84;21008;-75
2022/12/08 01:03:24;;;;;;;25.02;11.97;;;;;;;-2.15;89.40;97618.53;1683342;85;21072;-74
2022/12/08 01:05:51;;;;;;;30.92;14.55;;;;;;;-2.19;89.47;97621.51;1674489;84;21002;-73
2022/12/08 01:08:18;;;;;;;32.75;17.02;;;;;;;-2.19;89.83;97620.21;1674676;85;21412;-74
2022/12/08 01:10:44;;;;;;;32.83;16.15;;;;;;;-2.21;89.74;97628.38;1674533;84;20995;-74
2022/12/08 01:13:10;;;;;;;35.68;15.75;;;;;;;-2.25;89.66;97620.09;1674485;84;20959;-74
2022/12/08 01:15:38;;;;;;;35.35;16.35;;;;;;;-2.24;90.07;97619.27;1684789;84;21001;-74
2022/12/08 01:18:05;;;;;;;34.35;15.72;;;;;;;-2.17;89.90;97626.28;1680402;84;20983;-74
2022/12/08 01:20:32;;;;;;;24.35;12.68;;;;;;;-2.21;89.89;97628.38;1682017;84;21017;-74
2022/12/08 01:23:00;;;;;;;25.62;14.50;;;;;;;-2.19;89.62;97633.61;1682381;85;21080;-75
2022/12/08 01:25:27;;;;;;;27.50;14.15;;;;;;;-2.24;89.41;97633.55;1665437;85;21060;-75
2022/12/08 01:27:53;;;;;;;24.40;12.40;;;;;;;-2.24;89.73;97626.17;1650484;85;21043;-74
2022/12/08 01:30:21;;;;;;;27.22;13.08;;;;;;;-2.28;89.31;97639.09;1652887;86;20996;-74
2022/12/08 01:32:47;;;;;;;30.00;14.13;;;;;;;-2.34;89.13;97630.33;1624442;88;21513;-75
2022/12/08 01:35:14;;;;;;;27.58;14.35;;;;;;;-2.39;89.18;97624.67;1670731;86;21201;-75
2022/12/08 01:37:40;;;;;;;33.73;15.43;;;;;;;-2.40;89.16;97619.45;1627257;88;21043;-75
2022/12/08 01:40:08;;;;;;;32.42;15.68;;;;;;;-2.44;89.17;97618.95;1666669;86;21078;-75
2022/12/08 01:42:37;;;;;;;28.50;14.25;;;;;;;-2.46;89.60;97621.95;1658972;86;21031;-75
2022/12/08 01:45:08;;;;;;;25.82;13.93;;;;;;;-2.48;89.43;97621.03;1668588;86;21007;-75
2022/12/08 01:47:40;;;;;;;29.23;14.85;;;;;;;-2.50;89.59;97622.30;1667861;86;20968;-76
2022/12/08 01:50:10;;;;;;;22.98;12.68;;;;;;;-2.52;89.58;97628.76;1622527;88;21060;-75
2022/12/08 01:52:41;;;;;;;23.35;12.37;;;;;;;-2.51;89.45;97629.64;1665637;86;21054;-75
2022/12/08 01:55:13;;;;;;;25.25;11.95;;;;;;;-2.58;89.30;97633.00;1639930;86;21060;-75
2022/12/08 01:57:48;;;;;;;23.12;13.18;;;;;;;-2.61;89.21;97636.83;1622530;86;21110;-75
2022/12/08 02:00:19;;;;;;;24.65;12.68;;;;;;;-2.64;89.34;97624.68;1640156;86;20983;-75
2022/12/08 02:02:59;;;;;;;25.70;13.05;;;;;;;-2.63;89.56;97637.23;1640436;86;20968;-75
2022/12/08 02:05:33;;;;;;;25.77;13.22;;;;;;;-2.66;89.19;97637.62;1640875;86;21071;-75
2022/12/08 02:08:05;;;;;;;26.63;14.00;;;;;;;-2.67;89.39;97635.88;1640864;86;21381;-75
2022/12/08 02:10:36;;;;;;;24.10;13.30;;;;;;;-2.65;89.88;97643.25;1640225;86;21309;-75
2022/12/08 02:13:06;;;;;;;26.40;14.30;;;;;;;-2.61;89.84;97640.31;1627301;86;21068;-75
2022/12/08 02:16:04;;;;;;;24.80;13.18;;;;;;;-2.66;89.34;97642.80;1640776;86;21000;-74
2022/12/08 02:19:02;;;;;;;24.23;12.73;;;;;;;-2.63;89.66;97640.69;1638485;86;21012;-74
2022/12/08 02:21:54;;;;;;;24.07;12.98;;;;;;;-2.62;89.54;97648.91;1640232;86;21004;-74
2022/12/08 02:24:38;;;;;;;24.90;13.25;;;;;;;-2.65;89.61;97647.14;1640815;86;21035;-73
2022/12/08 02:27:43;;;;;;;27.48;14.75;;;;;;;-2.65;89.53;97647.14;1642836;86;21075;-74
2022/12/08 02:30:25;;;;;;;29.55;15.65;;;;;;;-2.64;89.76;97645.44;1640787;86;21021;-74
2022/12/08 02:33:09;;;;;;;27.25;13.88;;;;;;;-2.64;89.83;97644.14;1640822;86;21418;-74
2022/12/08 02:35:55;;;;;;;27.50;13.78;;;;;;;-2.65;89.57;97648.88;1641854;86;20984;-74
2022/12/08 02:38:50;;;;;;;26.05;13.75;;;;;;;-2.65;89.69;97646.28;1624147;86;21020;-74
2022/12/08 02:41:43;;;;;;;;;;;;;;;-2.66;89.43;97645.84;1641666;86;20992;-74
2022/12/08 02:44:24;;;;;;;26.48;12.82;;;;;;;-2.73;89.17;97648.75;1640679;86;20151;-74
2022/12/08 02:47:11;;;;;;;23.80;12.80;;;;;;;-2.74;89.29;97646.97;1640871;86;21055;-75
2022/12/08 02:49:37;;;;;;;26.93;12.98;;;;;;;-2.77;89.38;97646.05;1640833;86;21012;-74
2022/12/08 02:52:12;;;;;;;26.35;13.30;;;;;;;-2.82;88.86;97652.47;1640040;86;21004;-73
2022/12/08 02:54:43;;;;;;;23.73;12.95;;;;;;;-2.85;89.19;97648.52;1638468;86;21149;-73
2022/12/08 02:57:43;;;;;;;28.75;13.28;;;;;;;-2.87;89.28;97647.19;1640169;86;21518;-74
2022/12/08 03:00:14;;;;;;;31.30;14.73;;;;;;;-2.86;89.14;97647.63;1640730;86;21052;-73
2022/12/08 03:02:55;;;;;;;26.77;13.78;;;;;;;-2.90;88.93;97647.15;1640779;86;21413;-73
2022/12/08 03:05:39;;;;;;;29.37;13.85;;;;;;;-2.95;89.03;97648.78;1634328;86;21036;-73
2022/12/08 03:08:35;;;;;;;25.57;13.48;;;;;;;-2.95;89.14;97642.30;1641411;86;20999;-73
2022/12/08 03:11:10;;;;;;;29.27;14.10;;;;;;;-2.96;89.15;97644.01;1627025;86;21009;-74
2022/12/08 03:13:41;;;;;;;28.85;14.13;;;;;;;-2.97;89.09;97636.19;1640690;86;21071;-74
2022/12/08 03:16:12;;;;;;;29.90;14.58;;;;;;;-2.98;89.16;97647.42;1639787;86;20996;-75
2022/12/08 03:18:44;;;;;;;31.57;15.65;;;;;;;-2.97;89.31;97646.56;1640700;86;21437;-75
2022/12/08 03:21:14;;;;;;;25.57;13.22;;;;;;;-2.97;89.08;97640.08;1637898;86;21036;-75
2022/12/08 03:23:45;;;;;;;29.05;14.18;;;;;;;-3.00;88.93;97637.02;1665787;86;21013;-75
2022/12/08 03:26:35;;;;;;;29.00;14.43;;;;;;;-3.02;88.79;97638.72;1671295;86;20998;-75
2022/12/08 03:29:03;;;;;;;24.75;13.20;;;;;;;-3.07;89.02;97642.94;1659193;86;21447;-75
2022/12/08 03:31:33;;;;;;;30.95;14.83;;;;;;;-3.07;89.13;97643.80;1671478;86;21018;-75
2022/12/08 03:34:04;;;;;;;26.70;13.68;;;;;;;-3.04;89.20;97644.28;1671271;86;21092;-75
2022/12/08 03:36:31;;;;;;;27.52;14.13;;;;;;;-3.06;88.87;97640.80;1665007;86;21515;-75
2022/12/08 03:38:58;;;;;;;28.17;14.40;;;;;;;-3.10;88.47;97630.80;1671195;86;21372;-75
2022/12/08 03:41:24;;;;;;;25.02;13.18;;;;;;;-3.11;88.85;97642.42;1659570;86;21022;-75
2022/12/08 03:43:55;;;;;;;29.92;14.98;;;;;;;-3.09;89.11;97637.72;1654010;86;21443;-74
2022/12/08 03:46:23;;;;;;;27.98;14.28;;;;;;;-3.02;89.27;97647.79;1695790;84;21056;-75
2022/12/08 03:48:50;;;;;;;31.00;13.53;;;;;;;-3.02;88.86;97650.80;1715468;83;20980;-75
2022/12/08 03:51:17;;;;;;;25.45;13.10;;;;;;;-3.03;89.12;97652.94;1708677;84;21065;-75
2022/12/08 03:53:45;;;;;;;23.05;12.05;;;;;;;-3.03;88.73;97655.53;1702183;84;21003;-75
2022/12/08 03:56:31;;;;;;;24.37;12.35;;;;;;;-3.03;88.92;97652.94;1715384;84;21451;-75
2022/12/08 03:58:58;;;;;;;22.20;11.68;;;;;;;-3.09;88.57;97646.80;1704396;84;20969;-74
2022/12/08 04:01:26;;;;;;;22.98;11.90;;;;;;;-3.10;88.55;97643.76;1714660;84;20980;-74
2022/12/08 04:03:53;;;;;;;24.32;13.25;;;;;;;-3.14;88.64;97648.42;1696234;84;21367;-74
2022/12/08 04:06:21;;;;;;;26.87;11.75;;;;;;;-3.15;88.66;97647.98;1692761;84;21001;-74
2022/12/08 04:08:49;;;;;;;29.60;13.50;;;;;;;-3.18;88.76;97650.50;1715231;84;20989;-74
2022/12/08 04:11:17;;;;;;;33.33;14.98;;;;;;;-3.19;88.81;97642.28;1706218;84;21048;-75
2022/12/08 04:13:44;;;;;;;43.13;19.50;;;;;;;-3.20;88.51;97645.72;1701554;84;21032;-74
2022/12/08 04:16:17;;;;;;;45.88;19.77;;;;;;;-3.22;88.66;97646.98;1715236;84;21008;-75
2022/12/08 04:18:45;;;;;;;45.58;19.23;;;;;;;-3.26;88.41;97646.47;1715435;83;21001;-74
2022/12/08 04:21:11;;;;;;;47.62;20.20;;;;;;;-3.23;88.74;97646.95;1715174;82;21449;-74
2022/12/08 04:23:38;;;;;;;47.25;19.57;;;;;;;-3.23;88.61;97640.47;1715390;84;21024;-75
2022/12/08 04:26:05;;;;;;;37.08;17.55;;;;;;;-3.23;89.08;97640.47;1708131;84;21040;-76
2022/12/08 04:28:32;;;;;;;35.00;16.37;;;;;;;-3.15;89.02;97642.80;1715179;83;21453;-74
2022/12/08 04:30:59;;;;;;;38.50;16.40;;;;;;;-3.18;88.48;97634.95;1715302;83;20996;-75
2022/12/08 04:33:25;;;;;;;35.08;16.35;;;;;;;-3.15;88.90;97635.02;1715315;84;21547;-74
2022/12/08 04:35:52;;;;;;;23.60;12.55;;;;;;;-3.11;88.74;97629.02;1715153;84;20969;-74
2022/12/08 04:38:18;;;;;;;24.27;12.60;;;;;;;-3.08;89.29;97631.69;1715430;83;20973;-75
2022/12/08 04:40:45;;;;;;;24.60;12.93;;;;;;;-2.99;89.18;97634.01;1698095;83;20974;-75
2022/12/08 04:43:12;;;;;;;24.55;11.75;;;;;;;-2.94;88.99;97633.23;1715292;83;20981;-74
2022/12/08 04:45:41;;;;;;;21.30;9.90;;;;;;;-2.90;88.83;97634.18;1715363;84;21021;-75
2022/12/08 04:48:08;;;;;;;25.15;12.00;;;;;;;-2.85;88.90;97642.91;1715377;84;21030;-75
2022/12/08 04:50:38;;;;;;;18.98;10.05;;;;;;;-2.86;88.67;97637.70;1715341;84;21004;-75
2022/12/08 04:53:04;;;;;;;22.00;10.53;;;;;;;-2.88;88.70;97632.88;1714543;84;21040;-75
2022/12/08 04:55:31;;;;;;;23.18;10.43;;;;;;;-2.87;88.36;97632.92;1695817;84;21343;-75
2022/12/08 04:57:57;;;;;;;23.55;10.08;;;;;;;-2.93;88.09;97632.41;1715269;84;20972;-75
2022/12/08 05:00:24;;;;;;;23.45;10.65;;;;;;;-2.89;88.60;97635.03;1715430;84;21029;-75
2022/12/08 05:02:50;;;;;;;24.98;9.65;;;;;;;-2.80;88.82;97633.50;1697719;83;20989;-76
2022/12/08 05:05:17;;;;;;;22.58;10.88;;;;;;;-2.74;88.95;97640.94;1712676;84;20977;-75
2022/12/08 05:07:43;;;;;;;18.70;10.13;;;;;;;-2.65;89.06;97635.91;1715403;84;20984;-75
2022/12/08 05:10:10;;;;;;;26.02;10.43;;;;;;;-2.63;88.33;97643.28;1695205;83;21063;-75
2022/12/08 05:12:36;;;;;;;22.05;10.35;;;;;;;-2.63;88.50;97642.42;1715510;83;21064;-75
2022/12/08 05:15:04;;;;;;;24.40;10.72;;;;;;;-2.58;88.56;97643.38;1715447;83;21037;-75
2022/12/08 05:17:30;;;;;;;25.20;10.93;;;;;;;-2.58;88.21;97646.83;1715178;84;20977;-76
2022/12/08 05:19:56;;;;;;;24.92;10.95;;;;;;;-2.55;88.61;97655.97;1715414;83;21052;-76
2022/12/08 05:22:23;;;;;;;23.20;11.33;;;;;;;-2.51;88.37;97659.48;1705077;84;21421;-76
2022/12/08 05:24:49;;;;;;;21.87;10.60;;;;;;;-2.55;88.16;97657.27;1701141;84;21100;-76
2022/12/08 05:27:16;;;;;;;27.22;12.80;;;;;;;-2.53;88.21;97660.75;1715493;83;21489;-75
2022/12/08 05:29:42;;;;;;;30.52;12.78;;;;;;;-2.56;87.68;97658.12;1715632;84;21003;-75
2022/12/08 05:32:09;;;;;;;31.77;12.93;;;;;;;-2.60;87.82;97661.51;1715336;84;20985;-74
2022/12/08 05:34:35;;;;;;;30.23;12.58;;;;;;;-2.55;88.21;97661.57;1715625;84;21043;-76
2022/12/08 05:37:02;;;;;;;23.32;11.12;;;;;;;-2.53;88.03;97662.05;1714204;83;20989;-76
2022/12/08 05:39:28;;;;;;;24.02;11.68;;;;;;;-2.52;88.14;97662.49;1715104;84;21375;-75
2022/12/08 05:41:55;;;;;;;19.73;10.25;;;;;;;-2.53;88.01;97668.53;1710806;84;21133;-75
2022/12/08 05:44:21;;;;;;;23.87;11.12;;;;;;;-2.56;88.03;97650.75;1685700;84;21024;-75
2022/12/08 05:46:48;;;;;;;22.40;11.38;;;;;;;-2.60;87.69;97664.10;1701044;84;21036;-75
2022/12/08 05:49:14;;;;;;;24.87;10.48;;;;;;;-2.59;88.14;97668.84;1710032;84;21023;-76
2022/12/08 05:51:41;;;;;;;24.57;12.33;;;;;;;-2.59;88.09;97665.84;1711481;83;21572;-76
2022/12/08 05:54:07;;;;;;;26.95;11.90;;;;;;;-2.57;88.15;97668.47;1706648;84;20981;-76
2022/12/08 05:56:34;;;;;;;25.95;11.80;;;;;;;-2.57;88.08;97658.95;1715579;83;20996;-75
2022/12/08 05:59:01;;;;;;;26.15;13.53;;;;;;;-2.58;87.92;97666.28;1715499;84;21011;-75
2022/12/08 06:01:30;;;;;;;26.23;11.95;;;;;;;-2.56;87.88;97667.62;1714490;84;20988;-75
2022/12/08 06:03:59;;;;;;;23.67;12.40;;;;;;;-2.55;88.17;97667.65;1697497;84;21414;-75
2022/12/08 06:06:27;;;;;;;23.45;11.85;;;;;;;-2.49;88.21;97669.90;1702739;83;21040;-75
2022/12/08 06:08:55;;;;;;;25.55;12.58;;;;;;;-2.43;88.33;97677.78;1676005;84;21001;-73
2022/12/08 06:11:28;;;;;;;27.27;12.45;;;;;;;-2.40;88.24;97683.03;1715360;84;21037;-75
2022/12/08 06:13:56;;;;;;;25.12;12.30;;;;;;;-2.36;87.98;97678.35;1712963;84;21035;-74
2022/12/08 06:16:25;;;;;;;26.27;11.90;;;;;;;-2.33;88.07;97677.52;1703019;84;21016;-74
2022/12/08 06:18:53;;;;;;;27.27;12.63;;;;;;;-2.27;88.19;97684.11;1715396;84;21008;-74
2022/12/08 06:21:20;;;;;;;23.62;11.30;;;;;;;-2.28;87.66;97675.44;1691627;84;20963;-74
2022/12/08 06:23:52;;;;;;;26.40;12.40;;;;;;;-2.30;87.62;97682.75;1683071;84;20982;-73
2022/12/08 06:26:20;;;;;;;29.27;12.68;;;;;;;-2.23;88.08;97678.53;1683466;85;21412;-74
2022/12/08 06:28:48;;;;;;;28.67;12.07;;;;;;;-2.17;87.93;97676.92;1683520;84;20974;-75
2022/12/08 06:31:19;;;;;;;29.60;13.90;;;;;;;-2.14;87.80;97682.58;1683902;84;20963;-74
2022/12/08 06:33:47;;;;;;;27.70;14.38;;;;;;;-2.13;87.58;97684.33;1682042;85;21055;-74
2022/12/08 06:36:16;;;;;;;26.82;13.60;;;;;;;-2.10;87.75;97687.39;1681903;85;21047;-74
2022/12/08 06:38:43;;;;;;;26.60;12.45;;;;;;;-2.05;87.84;97680.13;1681313;85;20979;-75
2022/12/08 06:41:11;;;;;;;29.55;12.45;;;;;;;-2.01;87.55;97684.53;1681411;85;20990;-73
2022/12/08 06:43:38;;;;;;;24.15;12.68;;;;;;;-1.98;87.66;97683.70;1680678;84;20988;-74
2022/12/08 06:46:07;;;;;;;26.87;12.95;;;;;;;-1.91;87.56;97684.67;1679655;84;21099;-74
2022/12/08 06:48:34;;;;;;;31.12;13.10;;;;;;;-1.87;87.74;97687.77;1679776;84;21089;-74
2022/12/08 06:51:11;;;;;;;29.37;12.85;;;;;;;-1.83;87.67;97688.69;1681568;84;21012;-75
2022/12/08 06:53:39;;;;;;;30.48;15.28;;;;;;;-1.83;87.31;97689.98;1680141;85;21003;-75
2022/12/08 06:56:07;;;;;;;45.05;21.12;;;;;;;-1.82;87.26;97682.22;1680147;84;21066;-75
2022/12/08 06:58:34;;;;;;;32.20;16.00;;;;;;;-1.81;87.21;97686.55;1680002;84;20945;-74
2022/12/08 07:01:08;;;;;;;27.95;14.53;;;;;;;-1.78;87.16;97690.92;1674558;85;21022;-74
2022/12/08 07:03:37;;;;;;;33.08;14.68;;;;;;;-1.71;87.64;97688.84;1682428;84;21010;-75
2022/12/08 07:06:06;;;;;;;34.83;15.10;;;;;;;-1.61;87.58;97691.17;1681818;85;21342;-75
2022/12/08 07:08:34;;;;;;;28.73;13.55;;;;;;;-1.54;87.37;97700.78;1680965;85;20992;-75
2022/12/08 07:11:08;;;;;;;33.55;14.05;;;;;;;-1.52;87.41;97699.51;1681615;84;21369;-75
2022/12/08 07:13:34;;;;;;;27.60;14.25;;;;;;;-1.49;86.91;97704.31;1681241;84;21015;-75
2022/12/08 07:16:08;;;;;;;33.33;15.20;;;;;;;-1.45;86.88;97705.25;1680904;84;21831;-75
2022/12/08 07:18:36;;;;;;;33.15;14.83;;;;;;;-1.42;87.16;97695.33;1680328;85;21030;-75
2022/12/08 07:21:13;;;;;;;25.32;12.88;;;;;;;-1.41;86.67;97704.86;1681164;83;21426;-75
2022/12/08 07:23:41;;;;;;;24.95;12.28;;;;;;;-1.38;87.06;97705.77;1717081;83;20989;-75
2022/12/08 07:26:11;;;;;;;27.20;14.25;;;;;;;-1.34;86.98;97707.56;1704803;83;21007;-75
2022/12/08 07:28:40;;;;;;;31.87;14.73;;;;;;;-1.27;86.87;97699.42;1708039;83;21442;-75
2022/12/08 07:31:17;;;;;;;28.67;12.85;;;;;;;-1.28;85.89;97705.89;1710030;83;21027;-74
2022/12/08 07:33:43;;;;;;;29.95;14.18;;;;;;;-1.30;86.10;97699.37;1711291;83;20981;-74
2022/12/08 07:36:12;;;;;;;30.77;14.33;;;;;;;-1.28;86.51;97700.28;1700112;83;21079;-74
2022/12/08 07:38:39;;;;;;;30.65;14.25;;;;;;;-1.22;86.58;97696.45;1714418;83;20988;-74
2022/12/08 07:41:11;;;;;;;26.33;13.45;;;;;;;-1.19;86.27;97695.61;1714214;83;20997;-74
2022/12/08 07:43:37;;;;;;;28.27;15.25;;;;;;;-1.17;85.94;97704.74;1716636;83;21074;-75
2022/12/08 07:46:04;;;;;;;28.40;13.18;;;;;;;-1.16;86.32;97699.98;1721119;83;20992;-75
2022/12/08 07:48:31;;;;;;;29.23;14.05;;;;;;;-1.09;86.30;97696.58;1714834;83;21518;-75
2022/12/08 07:51:02;;;;;;;30.32;14.00;;;;;;;-0.99;86.30;97698.44;1713053;83;21023;-75
2022/12/08 07:53:30;;;;;;;34.05;17.10;;;;;;;-0.95;86.37;97700.67;1706188;83;22098;-75
2022/12/08 07:55:58;;;;;;;41.85;18.87;;;;;;;-0.85;86.31;97696.43;1720588;83;21068;-75
2022/12/08 07:58:26;;;;;;;45.08;22.58;;;;;;;-0.80;85.97;97702.55;1707850;83;21442;-75
2022/12/08 08:00:53;;;;;;;38.38;19.42;;;;;;;-0.73;86.12;97701.78;1713013;83;20977;-75
2022/12/08 08:03:21;;;;;;;38.53;19.77;;;;;;;-0.65;86.18;97702.28;1716361;83;20944;-76
2022/12/08 08:05:50;;;;;;;35.00;18.75;;;;;;;-0.57;86.02;97704.54;1699922;83;21045;-74
2022/12/08 08:08:17;;;;;;;27.73;14.73;;;;;;;-0.57;85.68;97693.71;1714910;83;20996;-73
2022/12/08 08:10:45;;;;;;;29.10;13.18;;;;;;;-0.48;86.03;97702.03;1718910;83;20996;-76
2022/12/08 08:13:12;;;;;;;25.82;14.90;;;;;;;-0.37;86.25;97702.56;1716241;83;21043;-76
2022/12/08 08:15:39;;;;;;;35.40;18.60;;;;;;;-0.30;85.78;97700.45;1719913;83;21000;-76
2022/12/08 08:18:07;;;;;;;47.48;22.95;;;;;;;-0.25;85.18;97702.66;1715582;83;21035;-75
2022/12/08 08:20:33;;;;;;;51.98;24.43;;;;;;;-0.19;85.54;97710.55;1714277;83;21044;-75
2022/12/08 08:23:00;;;;;;;51.23;27.40;;;;;;;-0.15;85.54;97709.72;1718236;83;21398;-75
2022/12/08 08:25:26;;;;;;;65.85;33.80;;;;;;;-0.06;85.42;97705.43;1714947;83;21020;-76
2022/12/08 08:27:54;;;;;;;81.05;35.92;;;;;;;-0.03;84.16;97700.25;1718120;83;20999;-75
2022/12/08 08:30:20;;;;;;;87.62;43.38;;;;;;;-0.01;85.13;97704.61;1711390;83;20997;-75
2022/12/08 08:32:48;;;;;;;108.07;48.35;;;;;;;0.06;85.19;97711.17;1714262;83;21071;-75
2022/12/08 08:35:15;;;;;;;108.67;47.83;;;;;;;0.08;84.63;97706.86;1721300;83;20988;-75
2022/12/08 08:37:42;;;;;;;108.37;48.52;;;;;;;0.07;84.92;97703.38;1721433;83;21001;-75
2022/12/08 08:40:09;;;;;;;106.03;46.13;;;;;;;0.10;84.70;97695.59;1713210;83;20965;-75
2022/12/08 08:42:36;;;;;;;110.25;50.00;;;;;;;0.09;83.71;97695.57;1707701;83;21600;-77
2022/12/08 08:45:04;;;;;;;98.97;46.35;;;;;;;0.05;84.12;97705.11;1707154;83;21093;-77
2022/12/08 08:47:30;;;;;;;94.45;43.60;;;;;;;0.09;83.89;97690.36;1715569;83;21024;-77
2022/12/08 08:49:57;;;;;;;85.28;41.73;;;;;;;0.07;84.11;97669.91;1692442;83;21134;-76
2022/12/08 08:52:23;;;;;;;97.90;44.77;;;;;;;0.10;84.17;97685.16;1691583;83;21012;-76
2022/12/08 08:54:50;;;;;;;94.87;43.33;;;;;;;0.17;84.31;97685.20;1688302;83;20957;-75
2022/12/08 08:57:16;;;;;;;89.22;41.75;;;;;;;0.25;84.80;97679.62;1687875;83;21044;-75
2022/12/08 08:59:43;;;;;;;91.75;41.50;;;;;;;0.34;84.52;97674.88;1693036;83;21028;-76
2022/12/08 09:02:16;;;;;;;85.65;40.67;;;;;;;0.30;84.05;97671.81;1692776;83;21035;-72
2022/12/08 09:04:44;;;;;;;85.05;39.60;;;;;;;0.35;84.60;97663.17;1692928;85;20956;-72
2022/12/08 09:07:11;;;;;;;75.52;39.25;;;;;;;0.28;84.12;97661.82;1716948;83;21461;-71
2022/12/08 09:09:39;;;;;;;76.75;39.05;;;;;;;0.32;84.09;97652.71;1723572;83;21033;-72
2022/12/08 09:12:06;;;;;;;70.22;35.60;;;;;;;0.38;84.39;97655.80;1722692;83;21020;-72
2022/12/08 09:14:32;;;;;;;75.90;34.38;;;;;;;0.43;84.26;97652.78;1708361;83;21027;-72
2022/12/08 09:17:00;;;;;;;71.75;35.85;;;;;;;0.49;84.47;97649.31;1697004;83;21003;-72
2022/12/08 09:19:26;;;;;;;64.32;34.95;;;;;;;0.64;84.25;97642.02;1710896;83;21079;-73
2022/12/08 09:21:53;;;;;;;66.92;33.15;;;;;;;0.75;84.45;97638.16;1708652;83;21011;-72
2022/12/08 09:24:20;;;;;;;60.63;29.05;;;;;;;0.80;83.86;97633.82;1696315;84;20992;-72
2022/12/08 09:26:46;;;;;;;56.50;30.15;;;;;;;0.89;84.07;97632.55;1689234;84;21028;-73
2022/12/08 09:29:13;;;;;;;61.53;30.80;;;;;;;0.94;83.06;97635.16;1666705;84;21017;-74
2022/12/08 09:31:41;;;;;;;57.48;29.50;;;;;;;0.92;83.29;97626.47;1689773;84;21012;-73
2022/12/08 09:34:07;;;;;;;61.53;32.33;;;;;;;0.97;83.12;97637.80;1696925;84;20999;-73
2022/12/08 09:36:33;;;;;;;64.35;30.20;;;;;;;0.96;83.48;97629.95;1696850;84;21032;-75
2022/12/08 09:39:00;;;;;;;55.80;26.15;;;;;;;1.03;83.38;97627.36;1676851;85;21429;-74
2022/12/08 09:41:49;;;;;;;52.03;27.25;;;;;;;1.01;82.77;97626.92;1676896;84;21000;-74
2022/12/08 09:44:48;;;;;;;56.00;28.83;;;;;;;0.97;82.63;97622.56;1678662;84;21036;-72
2022/12/08 09:47:28;;;;;;;60.38;29.20;;;;;;;0.89;82.82;97626.03;1654663;84;21542;-73
2022/12/08 09:50:12;;;;;;;60.70;31.17;;;;;;;0.91;83.36;97616.45;1686585;85;21032;-74
2022/12/08 09:52:50;;;;;;;69.53;31.47;;;;;;;0.97;83.08;97609.09;1695355;84;20988;-71
2022/12/08 09:55:24;;;;;;;56.80;28.83;;;;;;;1.09;83.63;97609.98;1694537;85;21071;-71
2022/12/08 09:57:59;;;;;;;61.13;30.57;;;;;;;1.17;83.20;97613.03;1686705;84;21548;-71
2022/12/08 10:00:26;;;;;;;60.43;29.30;;;;;;;1.28;83.21;97614.78;1689818;85;21055;-71
2022/12/08 10:02:55;;;;;;;52.80;28.02;;;;;;;1.33;82.78;97607.86;1690783;84;21845;-72
2022/12/08 10:05:25;;;;;;;55.88;29.70;;;;;;;1.28;82.74;97610.87;1686484;84;21524;-74
2022/12/08 10:08:09;;;;;;;56.10;28.52;;;;;;;1.34;82.83;97612.62;1657432;85;21059;-76
2022/12/08 10:10:40;;;;;;;53.30;28.02;;;;;;;1.43;82.55;97612.64;1666579;85;21111;-78
2022/12/08 10:13:22;;;;;;;54.48;26.35;;;;;;;1.55;82.57;97610.05;1664727;84;20981;-77
2022/12/08 10:16:20;;;;;;;55.50;30.23;;;;;;;1.63;82.70;97603.94;1622932;86;21508;-77
2022/12/08 10:18:58;;;;;;;57.83;28.50;;;;;;;1.68;82.52;97596.55;1664643;85;21095;-78
2022/12/08 10:21:28;;;;;;;61.73;31.17;;;;;;;1.69;81.69;97602.63;1660251;84;21060;-78
2022/12/08 10:24:00;;;;;;;55.28;29.52;;;;;;;1.60;81.58;97600.01;1658444;85;21012;-74
2022/12/08 10:26:31;;;;;;;60.98;32.38;;;;;;;1.62;82.23;97610.89;1686332;85;21462;-78
2022/12/08 10:29:00;;;;;;;55.90;29.72;;;;;;;1.72;82.34;97600.02;1684566;84;20992;-77
2022/12/08 10:31:25;;;;;;;61.00;29.07;;;;;;;1.82;82.28;97591.30;1677283;85;21015;-78
2022/12/08 10:34:00;;;;;;;56.55;30.32;;;;;;;1.75;81.80;97579.13;1680317;85;21036;-76
2022/12/08 10:36:54;;;;;;;48.00;25.25;;;;;;;1.82;82.00;97579.97;1685120;85;21119;-76
2022/12/08 10:39:43;;;;;;;47.48;24.67;;;;;;;2.07;82.03;97576.00;1679353;85;21470;-76
2022/12/08 10:42:21;;;;;;;50.00;27.37;;;;;;;2.69;82.60;97555.31;1683156;84;21121;-76
2022/12/08 10:45:11;;;;;;;43.35;23.62;;;;;;;2.98;80.83;97551.64;1683786;85;21429;-76
2022/12/08 10:47:41;;;;;;;46.02;23.42;;;;;;;2.94;79.50;97556.48;1685018;84;21016;-76
2022/12/08 10:50:22;;;;;;;43.45;24.32;;;;;;;2.80;79.46;97567.02;1672976;84;21015;-77
2022/12/08 10:53:00;;;;;;;59.53;33.30;;;;;;;2.75;80.31;97557.89;1667796;84;21046;-77
2022/12/08 10:55:29;;;;;;;52.08;27.90;;;;;;;2.74;79.27;97548.31;1674750;84;21064;-74
2022/12/08 10:57:55;;;;;;;46.37;23.87;;;;;;;2.68;79.51;97542.66;1680864;85;21044;-73
2022/12/08 11:00:27;;;;;;;42.03;23.45;;;;;;;2.67;79.83;97539.63;1676690;84;21099;-74
2022/12/08 11:03:01;;;;;;;47.88;25.20;;;;;;;2.74;80.03;97538.70;1680807;85;21024;-74
2022/12/08 11:05:34;;;;;;;46.95;25.25;;;;;;;3.09;80.31;97531.94;1644017;86;21064;-75
2022/12/08 11:08:02;;;;;;;43.60;23.85;;;;;;;3.93;79.64;97534.72;1684872;85;21406;-75
2022/12/08 11:10:36;;;;;;;48.78;23.67;;;;;;;3.86;78.93;97540.89;1659311;85;21492;-75
2022/12/08 11:13:09;;;;;;;46.53;23.80;;;;;;;3.68;78.14;97534.96;1685580;85;21020;-74
2022/12/08 11:15:38;;;;;;;49.90;23.35;;;;;;;3.55;79.12;97533.33;1682832;85;21087;-75
2022/12/08 11:18:32;;;;;;;40.23;23.18;;;;;;;3.43;77.77;97529.94;1680982;85;21018;-74
2022/12/08 11:21:06;;;;;;;47.93;22.85;;;;;;;3.35;78.92;97524.31;1674285;85;21453;-74
2022/12/08 11:23:36;;;;;;;43.15;23.77;;;;;;;3.31;79.22;97520.86;1688178;84;21032;-74
2022/12/08 11:26:08;;;;;;;48.23;25.57;;;;;;;3.13;78.88;97513.59;1689078;84;20998;-77
2022/12/08 11:28:35;;;;;;;43.60;22.17;;;;;;;3.02;79.06;97512.78;1693238;84;20996;-78
2022/12/08 11:31:10;;;;;;;45.98;24.18;;;;;;;2.94;79.61;97506.30;1685764;85;21039;-79
2022/12/08 11:33:40;;;;;;;42.03;23.70;;;;;;;2.95;80.05;97509.33;1681750;84;21413;-77
2022/12/08 11:36:11;;;;;;;48.80;24.98;;;;;;;2.91;80.14;97514.19;1667209;85;21031;-77
2022/12/08 11:38:45;;;;;;;43.55;23.00;;;;;;;2.84;80.47;97502.89;1693494;84;20995;-78
2022/12/08 11:41:22;;;;;;;45.75;23.12;;;;;;;2.84;80.58;97505.93;1694016;84;21082;-79